createdAt,value
2022-10-05T00:01:23.932Z,53.15
2022-10-05T00:03:51.125Z,53.07
2022-10-05T00:06:18.266Z,53.17
2022-10-05T00:08:45.380Z,53.42
2022-10-05T00:11:12.450Z,53.22
2022-10-05T00:13:39.525Z,53.22
2022-10-05T00:16:06.641Z,53.07
2022-10-05T00:18:33.757Z,53.12
2022-10-05T00:21:00.854Z,53.08
2022-10-05T00:23:27.922Z,53.26
2022-10-05T00:25:55.026Z,53.34
2022-10-05T00:28:22.182Z,53.17
2022-10-05T00:30:49.304Z,53.30
2022-10-05T00:33:16.379Z,53.12
2022-10-05T00:35:43.466Z,53.00
2022-10-05T00:38:10.599Z,53.19
2022-10-05T00:40:37.671Z,53.27
2022-10-05T00:43:04.766Z,53.02
2022-10-05T00:45:32.035Z,53.04
2022-10-05T00:47:59.219Z,52.98
2022-10-05T00:50:26.387Z,53.02
2022-10-05T00:52:53.460Z,53.27
2022-10-05T00:55:20.535Z,53.22
2022-10-05T00:57:47.610Z,53.27
2022-10-05T01:00:14.988Z,53.06
2022-10-05T01:02:42.198Z,53.26
2022-10-05T01:05:09.346Z,53.33
2022-10-05T01:07:36.418Z,53.15
2022-10-05T01:10:03.515Z,53.01
2022-10-05T01:12:30.691Z,53.09
2022-10-05T01:14:57.791Z,53.07
2022-10-05T01:17:24.863Z,53.06
2022-10-05T01:19:51.989Z,53.15
2022-10-05T01:22:19.088Z,53.06
2022-10-05T01:24:46.283Z,52.88
2022-10-05T01:27:13.639Z,53.09
2022-10-05T01:29:40.783Z,53.06
2022-10-05T01:32:07.902Z,52.96
2022-10-05T01:34:35.059Z,52.95
2022-10-05T01:37:02.132Z,53.00
2022-10-05T01:39:29.210Z,52.81
2022-10-05T01:41:56.317Z,53.10
2022-10-05T01:44:23.435Z,53.23
2022-10-05T01:46:50.504Z,53.08
2022-10-05T01:49:17.603Z,52.87
2022-10-05T01:51:44.749Z,52.88
2022-10-05T01:54:11.851Z,53.03
2022-10-05T01:56:38.935Z,52.85
2022-10-05T01:59:06.114Z,52.86
2022-10-05T02:01:33.337Z,52.95
2022-10-05T02:04:00.475Z,52.85
2022-10-05T02:06:27.564Z,52.96
2022-10-05T02:08:54.641Z,52.97
2022-10-05T02:11:21.766Z,52.95
2022-10-05T02:13:48.906Z,52.90
2022-10-05T02:16:16.838Z,52.94
2022-10-05T02:18:44.006Z,52.87
2022-10-05T02:21:11.130Z,52.84
2022-10-05T02:23:38.227Z,53.05
2022-10-05T02:26:05.310Z,52.81
2022-10-05T02:28:32.544Z,52.97
2022-10-05T02:30:59.748Z,52.93
2022-10-05T02:33:26.882Z,52.75
2022-10-05T02:35:53.976Z,52.85
2022-10-05T02:38:21.040Z,52.97
2022-10-05T02:40:48.143Z,52.99
2022-10-05T02:43:15.215Z,52.84
2022-10-05T02:45:42.720Z,52.99
2022-10-05T02:48:09.902Z,53.03
2022-10-05T02:50:37.052Z,52.68
2022-10-05T02:53:04.134Z,52.77
2022-10-05T02:55:31.213Z,52.65
2022-10-05T02:57:58.355Z,52.94
2022-10-05T03:00:25.666Z,52.53
2022-10-05T03:02:52.730Z,52.88
2022-10-05T03:05:19.871Z,52.66
2022-10-05T03:07:46.937Z,52.56
2022-10-05T03:10:14.057Z,52.84
2022-10-05T03:12:41.216Z,52.60
2022-10-05T03:15:08.286Z,52.60
2022-10-05T03:17:35.459Z,52.55
2022-10-05T03:20:02.543Z,52.77
2022-10-05T03:22:29.664Z,52.86
2022-10-05T03:24:56.723Z,52.59
2022-10-05T03:27:23.918Z,52.58
2022-10-05T03:29:51.027Z,52.65
2022-10-05T03:32:18.117Z,52.67
2022-10-05T03:34:45.257Z,52.69
2022-10-05T03:37:12.413Z,52.45
2022-10-05T03:39:39.729Z,52.72
2022-10-05T03:42:06.813Z,52.42
2022-10-05T03:44:33.887Z,52.66
2022-10-05T03:47:00.986Z,52.45
2022-10-05T03:49:28.072Z,52.30
2022-10-05T03:51:55.155Z,52.42
2022-10-05T03:54:22.271Z,52.41
2022-10-05T03:56:49.597Z,52.26
2022-10-05T03:59:16.866Z,52.39
2022-10-05T04:01:44.061Z,52.56
2022-10-05T04:04:11.210Z,52.35
2022-10-05T04:06:38.283Z,52.51
2022-10-05T04:09:05.375Z,52.34
2022-10-05T04:11:32.500Z,52.40
2022-10-05T04:13:59.583Z,52.58
2022-10-05T04:16:29.835Z,52.36
2022-10-05T04:18:56.897Z,52.29
2022-10-05T04:21:24.220Z,52.40
2022-10-05T04:23:51.319Z,52.23
2022-10-05T04:26:18.385Z,52.44
2022-10-05T04:28:45.768Z,52.18
2022-10-05T04:31:12.989Z,52.08
2022-10-05T04:33:40.107Z,52.18
2022-10-05T04:36:07.184Z,52.42
2022-10-05T04:38:34.266Z,52.34
2022-10-05T04:41:01.409Z,52.41
2022-10-05T04:43:28.507Z,52.34
2022-10-05T04:45:55.651Z,52.40
2022-10-05T04:48:22.824Z,52.29
2022-10-05T04:50:49.942Z,52.30
2022-10-05T04:53:17.024Z,52.20
2022-10-05T04:55:44.097Z,52.26
2022-10-05T04:58:11.244Z,52.11
2022-10-05T05:00:38.424Z,52.15
2022-10-05T05:03:05.547Z,52.18
2022-10-05T05:05:32.767Z,52.31
2022-10-05T05:07:59.848Z,52.34
2022-10-05T05:10:26.965Z,52.02
2022-10-05T05:12:54.062Z,52.10
2022-10-05T05:15:21.180Z,52.31
2022-10-05T05:17:48.291Z,52.10
2022-10-05T05:20:15.997Z,51.98
2022-10-05T05:22:43.195Z,52.16
2022-10-05T05:25:11.211Z,51.92
2022-10-05T05:27:38.291Z,52.12
2022-10-05T05:30:05.443Z,51.90
2022-10-05T05:32:32.541Z,52.14
2022-10-05T05:34:59.627Z,52.23
2022-10-05T05:37:26.736Z,52.26
2022-10-05T05:39:53.800Z,52.17
2022-10-05T05:42:21.563Z,51.96
2022-10-05T05:44:48.672Z,52.15
2022-10-05T05:47:15.897Z,51.98
2022-10-05T05:49:43.097Z,51.96
2022-10-05T05:52:10.162Z,52.24
2022-10-05T05:54:37.235Z,51.97
2022-10-05T05:57:08.105Z,52.23
2022-10-05T05:59:35.178Z,52.00
2022-10-05T06:02:02.379Z,52.12
2022-10-05T06:04:29.548Z,52.04
2022-10-05T06:06:56.615Z,52.10
2022-10-05T06:09:23.712Z,51.96
2022-10-05T06:11:50.820Z,51.91
2022-10-05T06:14:18.586Z,51.92
2022-10-05T06:16:46.565Z,52.21
2022-10-05T06:19:13.924Z,51.82
2022-10-05T06:21:40.993Z,51.89
2022-10-05T06:24:08.888Z,51.99
2022-10-05T06:26:36.350Z,51.79
2022-10-05T06:29:03.473Z,52.06
2022-10-05T06:31:30.730Z,51.79
2022-10-05T06:33:57.862Z,51.88
2022-10-05T06:36:24.986Z,51.99
2022-10-05T06:38:52.046Z,51.94
2022-10-05T06:41:19.120Z,51.77
2022-10-05T06:43:46.190Z,51.82
2022-10-05T06:46:13.714Z,51.73
2022-10-05T06:48:40.838Z,51.88
2022-10-05T06:51:07.895Z,51.94
2022-10-05T06:53:35.511Z,51.86
2022-10-05T06:56:02.589Z,51.78
2022-10-05T06:58:29.650Z,51.71
2022-10-05T07:00:56.741Z,51.92
2022-10-05T07:03:23.949Z,51.93
2022-10-05T07:05:51.059Z,52.00
2022-10-05T07:08:18.150Z,51.96
2022-10-05T07:10:45.345Z,52.02
2022-10-05T07:13:12.447Z,51.77
2022-10-05T07:15:39.518Z,51.91
2022-10-05T07:18:06.655Z,51.90
2022-10-05T07:20:33.755Z,51.71
2022-10-05T07:23:02.087Z,51.85
2022-10-05T07:25:29.219Z,51.89
2022-10-05T07:27:56.366Z,51.87
2022-10-05T07:30:23.506Z,51.88
2022-10-05T07:32:50.756Z,52.01
2022-10-05T07:35:36.488Z,52.04
2022-10-05T07:38:05.508Z,51.85
2022-10-05T07:40:32.619Z,52.17
2022-10-05T07:42:59.987Z,52.14
2022-10-05T07:45:27.942Z,52.17
2022-10-05T07:47:55.236Z,52.05
2022-10-05T07:50:22.331Z,52.07
2022-10-05T07:52:49.499Z,51.97
2022-10-05T07:55:16.576Z,52.22
2022-10-05T07:57:43.674Z,52.29
2022-10-05T08:00:11.496Z,52.12
2022-10-05T08:02:43.201Z,52.08
2022-10-05T08:05:13.457Z,51.89
2022-10-05T08:07:43.581Z,51.63
2022-10-05T08:10:10.666Z,51.75
2022-10-05T08:12:37.733Z,51.85
2022-10-05T08:15:04.866Z,51.68
2022-10-05T08:17:32.149Z,51.54
2022-10-05T08:19:59.237Z,51.36
2022-10-05T08:22:26.314Z,51.66
2022-10-05T08:24:53.488Z,51.65
2022-10-05T08:27:20.622Z,51.57
2022-10-05T08:29:47.697Z,51.57
2022-10-05T08:32:14.787Z,51.53
2022-10-05T08:34:41.927Z,51.43
2022-10-05T08:37:09.019Z,51.48
2022-10-05T08:39:36.080Z,51.60
2022-10-05T08:42:03.681Z,51.66
2022-10-05T08:44:30.770Z,51.82
2022-10-05T08:46:57.873Z,51.89
2022-10-05T08:49:24.952Z,51.67
2022-10-05T08:51:52.044Z,51.73
2022-10-05T08:54:19.127Z,51.84
2022-10-05T08:56:46.234Z,51.80
2022-10-05T08:59:13.303Z,51.73
2022-10-05T09:01:40.417Z,51.85
2022-10-05T09:04:07.562Z,51.44
2022-10-05T09:06:34.622Z,51.09
2022-10-05T09:09:03.388Z,51.27
2022-10-05T09:11:31.894Z,51.24
2022-10-05T09:13:59.084Z,51.17
2022-10-05T09:16:27.154Z,51.03
2022-10-05T09:18:54.968Z,51.37
2022-10-05T09:21:22.347Z,51.20
2022-10-05T09:23:49.885Z,51.50
2022-10-05T09:26:16.943Z,51.47
2022-10-05T09:28:44.064Z,51.25
2022-10-05T09:31:11.165Z,51.38
2022-10-05T09:33:38.279Z,51.61
2022-10-05T09:36:05.380Z,51.75
2022-10-05T09:38:32.458Z,51.81
2022-10-05T09:40:59.663Z,51.72
2022-10-05T09:43:26.919Z,51.60
2022-10-05T09:45:54.455Z,51.66
2022-10-05T09:48:23.824Z,51.61
2022-10-05T09:50:50.960Z,51.51
2022-10-05T09:53:18.068Z,51.68
2022-10-05T09:55:45.138Z,51.92
2022-10-05T09:58:12.763Z,51.70
2022-10-05T10:00:40.124Z,51.46
2022-10-05T10:03:07.381Z,51.70
2022-10-05T10:05:34.558Z,51.67
2022-10-05T10:08:04.662Z,51.91
2022-10-05T10:10:31.846Z,52.04
2022-10-05T10:12:58.921Z,51.91
2022-10-05T10:15:25.995Z,52.11
2022-10-05T10:17:53.084Z,52.12
2022-10-05T10:20:20.161Z,51.94
2022-10-05T10:22:48.972Z,52.08
2022-10-05T10:25:19.160Z,52.25
2022-10-05T10:27:51.589Z,51.76
2022-10-05T10:30:19.526Z,51.82
2022-10-05T10:32:46.611Z,52.22
2022-10-05T10:35:13.727Z,52.24
2022-10-05T10:37:40.934Z,52.16
2022-10-05T10:40:08.113Z,52.02
2022-10-05T10:42:35.260Z,52.24
2022-10-05T10:45:02.377Z,52.40
2022-10-05T10:47:29.519Z,52.39
2022-10-05T10:49:57.961Z,52.45
2022-10-05T10:52:25.032Z,52.58
2022-10-05T10:54:53.367Z,52.32
2022-10-05T10:57:20.475Z,52.30
2022-10-05T10:59:47.559Z,52.36
2022-10-05T11:02:15.066Z,52.49
2022-10-05T11:04:42.231Z,52.43
2022-10-05T11:07:09.319Z,52.23
2022-10-05T11:09:36.447Z,52.37
2022-10-05T11:12:03.561Z,52.24
2022-10-05T11:14:30.647Z,52.23
2022-10-05T11:16:57.730Z,52.18
2022-10-05T11:19:35.184Z,52.31
2022-10-05T11:22:12.496Z,52.27
2022-10-05T11:24:39.570Z,52.26
2022-10-05T11:27:08.373Z,52.47
2022-10-05T11:29:35.561Z,52.46
2022-10-05T11:32:05.678Z,52.46
2022-10-05T11:34:32.792Z,52.08
2022-10-05T11:36:59.894Z,52.26
2022-10-05T11:39:27.071Z,52.38
2022-10-05T11:41:54.151Z,52.44
2022-10-05T11:44:21.263Z,52.30
2022-10-05T11:46:49.186Z,52.15
2022-10-05T11:49:16.356Z,52.38
2022-10-05T11:51:43.435Z,52.70
2022-10-05T11:54:12.425Z,52.48
2022-10-05T11:56:39.711Z,52.40
2022-10-05T11:59:06.798Z,52.09
2022-10-05T12:01:34.826Z,52.28
2022-10-05T12:04:02.034Z,52.39
2022-10-05T12:06:29.292Z,52.46
2022-10-05T12:08:56.698Z,52.29
2022-10-05T12:11:23.805Z,52.31
2022-10-05T12:13:51.230Z,52.45
2022-10-05T12:16:18.374Z,52.63
2022-10-05T12:18:45.528Z,52.72
2022-10-05T12:21:13.221Z,52.39
2022-10-05T12:23:40.434Z,52.51
2022-10-05T12:26:07.908Z,52.83
2022-10-05T12:28:35.133Z,52.69
2022-10-05T12:31:02.360Z,52.54
2022-10-05T12:33:29.490Z,52.72
2022-10-05T12:35:56.550Z,52.58
2022-10-05T12:38:24.928Z,52.66
2022-10-05T12:40:52.242Z,52.74
2022-10-05T12:43:19.371Z,52.65
2022-10-05T12:45:47.204Z,52.54
2022-10-05T12:48:14.426Z,52.57
2022-10-05T12:50:41.676Z,52.31
2022-10-05T12:53:08.787Z,52.46
2022-10-05T12:55:35.938Z,52.32
2022-10-05T12:58:05.341Z,52.74
2022-10-05T13:00:32.460Z,52.63
2022-10-05T13:02:59.565Z,52.47
2022-10-05T13:05:26.759Z,52.54
2022-10-05T13:07:53.903Z,52.36
2022-10-05T13:10:21.027Z,52.40
2022-10-05T13:12:48.135Z,52.40
2022-10-05T13:15:15.200Z,52.43
2022-10-05T13:17:42.296Z,52.69
2022-10-05T13:20:09.381Z,52.47
2022-10-05T13:22:36.595Z,52.70
2022-10-05T13:25:03.699Z,52.83
2022-10-05T13:27:30.805Z,52.49
2022-10-05T13:29:57.874Z,52.96
2022-10-05T13:32:24.982Z,52.64
2022-10-05T13:34:52.516Z,53.10
2022-10-05T13:37:19.598Z,52.78
2022-10-05T13:39:46.791Z,53.10
2022-10-05T13:42:13.853Z,52.92
2022-10-05T13:44:40.939Z,53.08
2022-10-05T13:47:08.012Z,52.93
2022-10-05T13:49:35.446Z,53.08
2022-10-05T13:52:02.649Z,52.84
2022-10-05T13:54:29.711Z,53.02
2022-10-05T13:56:56.778Z,53.01
2022-10-05T13:59:23.893Z,53.04
2022-10-05T14:01:51.024Z,53.06
2022-10-05T14:04:18.216Z,53.25
2022-10-05T14:06:45.392Z,53.03
2022-10-05T14:09:12.459Z,53.21
2022-10-05T14:11:40.095Z,53.34
2022-10-05T14:14:07.406Z,53.43
2022-10-05T14:16:35.566Z,53.08
2022-10-05T14:19:02.710Z,53.10
2022-10-05T14:21:29.827Z,53.32
2022-10-05T14:24:00.005Z,53.36
2022-10-05T14:26:27.367Z,53.31
2022-10-05T14:28:54.490Z,53.07
2022-10-05T14:31:21.592Z,53.11
2022-10-05T14:33:48.693Z,53.32
2022-10-05T14:36:22.460Z,53.27
2022-10-05T14:38:52.144Z,53.23
2022-10-05T14:41:19.313Z,53.37
2022-10-05T14:43:47.839Z,53.21
2022-10-05T14:46:15.387Z,53.22
2022-10-05T14:48:42.779Z,53.11
2022-10-05T14:51:09.868Z,53.26
2022-10-05T14:53:37.996Z,53.24
2022-10-05T14:56:05.273Z,53.37
2022-10-05T14:58:32.366Z,53.42
2022-10-05T15:00:59.498Z,53.20
2022-10-05T15:03:27.318Z,53.39
2022-10-05T15:05:54.458Z,53.17
2022-10-05T15:08:21.719Z,53.18
2022-10-05T15:10:49.955Z,53.45
2022-10-05T15:13:17.144Z,53.18
2022-10-05T15:15:44.240Z,53.13
2022-10-05T15:18:11.683Z,53.16
2022-10-05T15:20:38.821Z,53.22
2022-10-05T15:23:05.953Z,53.27
2022-10-05T15:25:33.022Z,53.04
2022-10-05T15:28:00.205Z,53.19
2022-10-05T15:30:27.500Z,53.09
2022-10-05T15:32:55.537Z,53.21
2022-10-05T15:35:22.633Z,52.92
2022-10-05T15:37:49.711Z,53.26
2022-10-05T15:40:17.090Z,52.89
2022-10-05T15:42:45.322Z,52.93
2022-10-05T15:45:13.210Z,53.31
2022-10-05T15:47:40.286Z,53.22
2022-10-05T15:50:07.386Z,53.08
2022-10-05T15:52:34.470Z,53.01
2022-10-05T15:55:01.543Z,53.33
2022-10-05T15:57:28.637Z,53.27
2022-10-05T15:59:55.775Z,53.15
2022-10-05T16:02:22.941Z,53.22
2022-10-05T16:04:50.167Z,53.14
2022-10-05T16:07:35.730Z,52.87
2022-10-05T16:10:02.819Z,53.11
2022-10-05T16:12:29.961Z,53.28
2022-10-05T16:14:57.061Z,53.34
2022-10-05T16:17:24.211Z,53.91
2022-10-05T16:19:51.288Z,54.39
2022-10-05T16:22:18.520Z,53.91
2022-10-05T16:24:47.331Z,54.23
2022-10-05T16:27:16.150Z,54.53
2022-10-05T16:29:43.238Z,54.36
2022-10-05T16:32:10.326Z,54.68
2022-10-05T16:34:37.453Z,55.03
2022-10-05T16:37:04.633Z,55.13
2022-10-05T16:39:31.708Z,54.60
2022-10-05T16:41:58.800Z,55.10
2022-10-05T16:44:25.884Z,54.85
2022-10-05T16:46:53.668Z,55.43
2022-10-05T16:49:20.842Z,55.27
2022-10-05T16:51:47.961Z,55.08
2022-10-05T16:54:15.048Z,55.49
2022-10-05T16:56:42.193Z,55.58
2022-10-05T16:59:09.308Z,55.03
2022-10-05T17:01:42.227Z,55.42
2022-10-05T17:04:09.681Z,55.32
2022-10-05T17:06:37.025Z,54.94
2022-10-05T17:09:04.094Z,55.04
2022-10-05T17:11:31.199Z,55.02
2022-10-05T17:13:58.382Z,55.04
2022-10-05T17:16:25.494Z,54.83
2022-10-05T17:18:52.564Z,54.67
2022-10-05T17:21:21.428Z,54.54
2022-10-05T17:23:48.629Z,54.50
2022-10-05T17:26:16.118Z,54.44
2022-10-05T17:28:44.321Z,54.20
2022-10-05T17:31:11.493Z,54.26
2022-10-05T17:33:39.261Z,54.29
2022-10-05T17:36:08.492Z,54.24
2022-10-05T17:38:35.709Z,54.44
2022-10-05T17:41:06.460Z,54.35
2022-10-05T17:43:33.562Z,54.45
2022-10-05T17:46:00.755Z,54.11
2022-10-05T17:48:27.903Z,54.07
2022-10-05T17:51:13.921Z,54.01
2022-10-05T17:53:59.844Z,53.95
2022-10-05T17:56:27.149Z,54.33
2022-10-05T17:58:54.715Z,53.90
2022-10-05T18:01:21.870Z,54.07
2022-10-05T18:03:49.567Z,54.26
2022-10-05T18:06:16.708Z,54.42
2022-10-05T18:08:43.798Z,54.20
2022-10-05T18:11:10.865Z,54.21
2022-10-05T18:13:38.001Z,54.43
2022-10-05T18:16:05.206Z,54.24
2022-10-05T18:18:32.329Z,54.28
2022-10-05T18:20:59.412Z,54.33
2022-10-05T18:23:26.495Z,54.38
2022-10-05T18:25:53.574Z,54.37
2022-10-05T18:28:20.734Z,54.22
2022-10-05T18:30:49.436Z,54.44
2022-10-05T18:33:16.598Z,54.11
2022-10-05T18:35:44.142Z,54.52
2022-10-05T18:38:11.312Z,54.12
2022-10-05T18:40:38.416Z,54.38
2022-10-05T18:43:05.490Z,54.44
2022-10-05T18:45:32.578Z,54.25
2022-10-05T18:47:59.700Z,54.44
2022-10-05T18:50:26.816Z,54.26
2022-10-05T18:52:53.905Z,54.16
2022-10-05T18:55:20.999Z,54.42
2022-10-05T18:57:48.122Z,54.48
2022-10-05T19:00:15.288Z,54.31
2022-10-05T19:02:43.156Z,54.19
2022-10-05T19:05:23.798Z,54.19
2022-10-05T19:07:59.319Z,54.15
2022-10-05T19:10:26.406Z,53.97
2022-10-05T19:12:53.483Z,54.24
2022-10-05T19:15:20.567Z,54.30
2022-10-05T19:17:47.658Z,54.04
2022-10-05T19:20:17.068Z,54.13
2022-10-05T19:22:44.221Z,54.21
2022-10-05T19:25:13.404Z,53.98
2022-10-05T19:27:40.511Z,54.31
2022-10-05T19:30:07.604Z,54.29
2022-10-05T19:32:34.747Z,54.12
2022-10-05T19:35:01.842Z,54.34
2022-10-05T19:37:30.984Z,54.31
2022-10-05T19:39:58.726Z,54.28
2022-10-05T19:42:25.873Z,54.37
2022-10-05T19:44:52.960Z,54.54
2022-10-05T19:47:20.117Z,54.66
2022-10-05T19:49:47.201Z,54.47
2022-10-05T19:52:14.368Z,54.52
2022-10-05T19:54:41.834Z,54.69
2022-10-05T19:57:10.577Z,54.52
2022-10-05T19:59:40.498Z,54.30
2022-10-05T20:02:07.673Z,54.56
2022-10-05T20:04:34.807Z,54.45
2022-10-05T20:07:02.444Z,54.94
2022-10-05T20:09:29.531Z,54.52
2022-10-05T20:11:56.833Z,54.63
2022-10-05T20:14:23.912Z,54.76
2022-10-05T20:17:09.859Z,54.85
2022-10-05T20:19:55.621Z,55.12
2022-10-05T20:22:22.873Z,54.97
2022-10-05T20:24:50.018Z,54.82
2022-10-05T20:27:18.864Z,54.97
2022-10-05T20:29:46.887Z,55.11
2022-10-05T20:32:14.109Z,55.05
2022-10-05T20:34:41.516Z,55.04
2022-10-05T20:37:08.669Z,54.99
2022-10-05T20:39:35.795Z,55.03
2022-10-05T20:42:02.881Z,55.03
2022-10-05T20:44:29.975Z,55.05
2022-10-05T20:46:58.454Z,55.06
2022-10-05T20:49:26.357Z,55.12
2022-10-05T20:51:55.710Z,55.05
2022-10-05T20:54:22.842Z,55.56
2022-10-05T20:56:50.115Z,55.51
2022-10-05T20:59:17.268Z,55.45
2022-10-05T21:01:47.911Z,55.50
2022-10-05T21:04:15.097Z,55.58
2022-10-05T21:06:43.794Z,55.40
2022-10-05T21:09:11.581Z,55.59
2022-10-05T21:11:39.616Z,55.36
2022-10-05T21:14:06.728Z,55.67
2022-10-05T21:16:38.177Z,55.73
2022-10-05T21:19:09.517Z,55.76
2022-10-05T21:21:36.638Z,55.87
2022-10-05T21:24:03.715Z,55.54
2022-10-05T21:26:31.123Z,55.74
2022-10-05T21:28:58.449Z,55.92
2022-10-05T21:31:26.740Z,55.65
2022-10-05T21:33:54.023Z,55.91
2022-10-05T21:36:23.917Z,55.70
2022-10-05T21:38:52.007Z,55.78
2022-10-05T21:41:19.174Z,55.96
2022-10-05T21:43:46.356Z,56.02
2022-10-05T21:46:13.473Z,55.62
2022-10-05T21:48:40.641Z,55.64
2022-10-05T21:51:07.727Z,56.03
2022-10-05T21:53:34.946Z,56.11
2022-10-05T21:56:03.032Z,56.10
2022-10-05T21:58:30.594Z,56.00
2022-10-05T22:00:58.026Z,55.96
2022-10-05T22:03:25.260Z,56.28
2022-10-05T22:05:52.545Z,56.04
2022-10-05T22:08:19.690Z,55.89
2022-10-05T22:10:46.769Z,56.01
2022-10-05T22:13:13.853Z,55.88
2022-10-05T22:15:40.975Z,56.03
2022-10-05T22:18:08.083Z,56.13
2022-10-05T22:20:35.227Z,56.12
2022-10-05T22:23:02.374Z,56.42
2022-10-05T22:25:33.803Z,56.24
2022-10-05T22:28:00.939Z,56.19
2022-10-05T22:30:28.062Z,56.12
2022-10-05T22:32:55.243Z,56.11
2022-10-05T22:35:22.374Z,56.31
2022-10-05T22:37:49.486Z,56.45
2022-10-05T22:40:16.575Z,56.45
2022-10-05T22:42:43.715Z,56.44
2022-10-05T22:45:10.818Z,56.04
2022-10-05T22:47:37.887Z,56.25
2022-10-05T22:50:04.956Z,56.12
2022-10-05T22:52:32.047Z,56.27
2022-10-05T22:54:59.168Z,56.26
2022-10-05T22:57:26.231Z,56.20
2022-10-05T22:59:53.315Z,56.43
2022-10-05T23:02:20.469Z,56.29
2022-10-05T23:04:47.579Z,56.57
2022-10-05T23:07:14.655Z,56.70
2022-10-05T23:09:41.739Z,56.60
2022-10-05T23:12:08.876Z,56.48
2022-10-05T23:14:36.006Z,56.50
2022-10-05T23:17:03.133Z,56.66
2022-10-05T23:19:30.211Z,56.36
2022-10-05T23:21:57.311Z,56.39
2022-10-05T23:24:24.396Z,56.62
2022-10-05T23:26:51.644Z,56.27
2022-10-05T23:29:18.744Z,56.40
2022-10-05T23:31:45.877Z,56.48
2022-10-05T23:34:13.029Z,56.42
2022-10-05T23:36:40.129Z,56.70
2022-10-05T23:39:07.229Z,56.41
2022-10-05T23:41:34.512Z,56.71
2022-10-05T23:44:01.579Z,56.52
2022-10-05T23:46:28.754Z,56.63
2022-10-05T23:48:55.926Z,56.74
2022-10-05T23:51:23.080Z,56.76
2022-10-05T23:53:50.191Z,56.54
2022-10-05T23:56:17.265Z,56.53
2022-10-05T23:58:45.043Z,56.74
